Time;durP1;ratioP1;P1;durP2;ratioP2;P2;SDS_P1;SDS_P2;PMS_P1;PMS_P2;Temp;Humidity;BMP_temperature;BMP_pressure;BME280_temperature;BME280_humidity;BME280_pressure;Samples;Min_cycle;Max_cycle;Signal;HPM_P1;HPM_P2
2022/09/30 00:00:44;;;;;;;648.78;336.65;;;;;;;;;;5111335;27;20573;-72
2022/09/30 00:03:10;;;;;;;577.50;311.27;;;;;;;;;;5111262;28;20028;-72
2022/09/30 00:05:36;;;;;;;590.38;324.08;;;;;;;;;;5110720;28;20027;-71
2022/09/30 00:08:02;;;;;;;517.10;294.45;;;;;;;;;;5110777;28;20096;-71
2022/09/30 00:10:28;;;;;;;471.30;284.35;;;;;;;;;;5112175;28;20020;-71
2022/09/30 00:12:55;;;;;;;472.48;288.75;;;;;;;;;;5111948;28;20020;-71
2022/09/30 00:15:21;;;;;;;460.08;283.20;;;;;;;;;;5112052;28;20019;-72
2022/09/30 00:17:47;;;;;;;445.20;275.42;;;;;;;;;;5110349;28;20468;-72
2022/09/30 00:20:13;;;;;;;458.58;283.23;;;;;;;;;;5110706;28;20039;-71
2022/09/30 00:22:39;;;;;;;448.35;277.90;;;;;;;;;;5110909;28;20062;-71
2022/09/30 00:25:06;;;;;;;483.83;291.23;;;;;;;;;;5110451;28;20099;-72
2022/09/30 00:29:00;;;;;;;490.27;293.42;;;;;;;;;;5111336;27;20717;-71
2022/09/30 00:32:14;;;;;;;645.45;331.20;;;;;;;;;;5110831;27;20393;-72
2022/09/30 00:34:40;;;;;;;646.03;338.58;;;;;;;;;;5110002;28;20479;-72
2022/09/30 00:37:07;;;;;;;620.78;315.90;;;;;;;;;;5111176;28;20023;-72
2022/09/30 00:39:36;;;;;;;622.08;327.25;;;;;;;;;;5110734;28;20020;-72
2022/09/30 00:42:05;;;;;;;571.10;314.00;;;;;;;;;;5110960;28;20020;-71
2022/09/30 00:47:33;;;;;;;596.70;324.98;;;;;;;;;;5110751;27;20393;-71
2022/09/30 00:50:01;;;;;;;610.70;320.83;;;;;;;;;;5111101;28;20030;-71
2022/09/30 00:52:28;;;;;;;613.53;312.27;;;;;;;;;;5111145;28;20085;-71
2022/09/30 00:54:57;;;;;;;675.95;331.77;;;;;;;;;;5110838;28;20024;-71
2022/09/30 00:57:23;;;;;;;592.53;310.40;;;;;;;;;;5110935;28;20030;-72
2022/09/30 00:59:50;;;;;;;630.58;327.80;;;;;;;;;;5110774;28;20073;-72
2022/09/30 01:02:17;;;;;;;574.92;312.08;;;;;;;;;;5110961;28;20038;-72
2022/09/30 01:04:44;;;;;;;587.85;320.10;;;;;;;;;;5110936;28;20628;-72
2022/09/30 01:07:10;;;;;;;623.45;326.05;;;;;;;;;;5110114;28;20082;-71
2022/09/30 01:09:37;;;;;;;585.83;316.17;;;;;;;;;;5110798;28;20027;-71
2022/09/30 01:12:05;;;;;;;626.90;314.38;;;;;;;;;;5110634;28;20475;-71
2022/09/30 01:17:56;;;;;;;633.72;328.58;;;;;;;;;;5111377;27;20426;-71
2022/09/30 01:20:37;;;;;;;584.72;315.90;;;;;;;;;;5108193;28;20097;-72
2022/09/30 01:25:49;;;;;;;611.53;317.48;;;;;;;;;;5111339;27;20384;-71
2022/09/30 01:28:34;;;;;;;633.70;327.42;;;;;;;;;;5110755;28;20472;-72
2022/09/30 01:32:03;;;;;;;660.10;332.23;;;;;;;;;;5111204;27;20117;-71
2022/09/30 01:36:44;;;;;;;586.97;302.38;;;;;;;;;;5110901;27;20113;-72
2022/09/30 01:39:21;;;;;;;613.30;322.35;;;;;;;;;;5089389;28;20028;-71
2022/09/30 01:43:56;;;;;;;669.60;345.80;;;;;;;;;;5110730;27;20396;-71
2022/09/30 01:46:40;;;;;;;656.97;334.80;;;;;;;;;;5111255;28;20055;-71
2022/09/30 01:49:09;;;;;;;653.05;334.08;;;;;;;;;;5110895;28;20073;-71
2022/09/30 01:51:35;;;;;;;529.33;300.88;;;;;;;;;;5110931;28;20391;-70
2022/09/30 01:54:05;;;;;;;544.05;302.55;;;;;;;;;;5111028;28;20055;-71
2022/09/30 01:56:52;;;;;;;580.17;314.13;;;;;;;;;;5110544;28;20375;-71
2022/09/30 01:59:24;;;;;;;578.05;316.17;;;;;;;;;;5109566;28;20093;-72
2022/09/30 02:01:58;;;;;;;575.38;314.33;;;;;;;;;;5110748;28;20107;-71
2022/09/30 02:07:19;;;;;;;599.95;325.27;;;;;;;;;;5111110;27;20436;-72
2022/09/30 02:09:51;;;;;;;618.90;327.55;;;;;;;;;;5111112;28;20024;-72
2022/09/30 02:14:33;;;;;;;674.55;338.73;;;;;;;;;;5111167;27;20310;-72
2022/09/30 02:17:09;;;;;;;656.00;330.75;;;;;;;;;;5090853;28;20029;-72
2022/09/30 02:19:44;;;;;;;686.42;340.27;;;;;;;;;;5090635;28;20028;-71
2022/09/30 02:22:21;;;;;;;623.08;325.63;;;;;;;;;;5090534;28;20085;-72
2022/09/30 02:24:51;;;;;;;673.55;336.88;;;;;;;;;;5090296;28;20407;-71
2022/09/30 02:27:21;;;;;;;634.58;333.08;;;;;;;;;;5090785;28;20021;-72
2022/09/30 02:30:19;;;;;;;683.47;348.80;;;;;;;;;;5111424;27;20565;-71
2022/09/30 02:32:50;;;;;;;664.00;338.60;;;;;;;;;;5109528;28;20148;-71
2022/09/30 02:37:20;;;;;;;667.15;336.20;;;;;;;;;;5111175;27;20787;-72
2022/09/30 02:40:43;;;;;;;699.22;340.13;;;;;;;;;;5070668;28;20795;-71
2022/09/30 02:43:19;;;;;;;665.95;331.48;;;;;;;;;;5111184;27;20777;-71
2022/09/30 02:45:51;;;;;;;653.13;333.35;;;;;;;;;;5110825;28;20036;-71
2022/09/30 02:48:28;;;;;;;683.38;344.88;;;;;;;;;;5111046;28;20024;-71
2022/09/30 02:51:00;;;;;;;657.80;333.58;;;;;;;;;;5111360;28;20024;-72
2022/09/30 02:53:44;;;;;;;651.53;339.95;;;;;;;;;;5111030;28;20028;-72
2022/09/30 02:56:17;;;;;;;658.05;343.55;;;;;;;;;;5110976;28;20028;-72
2022/09/30 02:58:44;;;;;;;652.78;338.23;;;;;;;;;;5110852;28;20103;-71
2022/09/30 03:01:12;;;;;;;633.47;332.00;;;;;;;;;;5110396;28;20051;-72
2022/09/30 03:03:41;;;;;;;690.22;350.98;;;;;;;;;;5110899;28;20387;-71
2022/09/30 03:06:08;;;;;;;670.35;344.05;;;;;;;;;;5110816;28;20414;-72
2022/09/30 03:09:04;;;;;;;677.58;348.17;;;;;;;;;;5111431;27;20448;-72
2022/09/30 03:11:31;;;;;;;636.15;324.83;;;;;;;;;;5111216;28;20073;-72
2022/09/30 03:14:09;;;;;;;614.42;324.50;;;;;;;;;;5110664;28;20055;-71
2022/09/30 03:16:54;;;;;;;672.10;338.40;;;;;;;;;;5109866;28;20024;-72
2022/09/30 03:19:27;;;;;;;652.25;332.00;;;;;;;;;;5110994;28;20024;-72
2022/09/30 03:21:54;;;;;;;621.25;326.73;;;;;;;;;;5109173;28;20105;-72
2022/09/30 03:24:23;;;;;;;655.92;337.48;;;;;;;;;;5111008;28;20028;-72
2022/09/30 03:26:52;;;;;;;661.80;333.85;;;;;;;;;;5110789;28;20012;-71
2022/09/30 03:29:23;;;;;;;720.28;346.45;;;;;;;;;;5109039;28;20109;-72
2022/09/30 03:31:58;;;;;;;704.88;347.30;;;;;;;;;;5110885;28;20024;-72
2022/09/30 03:34:32;;;;;;;696.35;345.80;;;;;;;;;;5110832;28;20032;-71
2022/09/30 03:37:01;;;;;;;;;;;;;;;;;;5111136;28;20020;-72
2022/09/30 03:39:48;;;;;;;721.42;351.45;;;;;;;;;;5109369;28;20364;-72
2022/09/30 03:42:20;;;;;;;726.88;355.45;;;;;;;;;;5110141;28;20124;-71
2022/09/30 03:45:12;;;;;;;722.95;349.33;;;;;;;;;;5110461;28;20028;-72
2022/09/30 03:47:42;;;;;;;734.75;361.40;;;;;;;;;;5110485;28;20031;-72
2022/09/30 03:50:11;;;;;;;729.20;359.50;;;;;;;;;;5110223;28;20077;-72
2022/09/30 03:52:37;;;;;;;709.50;343.92;;;;;;;;;;5110320;28;20027;-72
2022/09/30 03:55:06;;;;;;;716.78;350.73;;;;;;;;;;5110421;28;20039;-72
2022/09/30 03:57:33;;;;;;;721.08;352.23;;;;;;;;;;5109890;28;20022;-72
2022/09/30 04:00:00;;;;;;;724.97;352.77;;;;;;;;;;5110128;28;20526;-72
2022/09/30 04:02:27;;;;;;;727.15;359.40;;;;;;;;;;5110248;28;20015;-72
2022/09/30 04:04:53;;;;;;;714.55;344.02;;;;;;;;;;5108489;28;20597;-72
2022/09/30 04:07:19;;;;;;;720.40;352.13;;;;;;;;;;5109722;28;20488;-72
2022/09/30 04:09:45;;;;;;;722.97;352.58;;;;;;;;;;5109683;28;20081;-72
2022/09/30 04:12:11;;;;;;;706.55;351.98;;;;;;;;;;5108574;28;20388;-73
2022/09/30 04:14:38;;;;;;;701.63;342.98;;;;;;;;;;5109944;28;20476;-73
2022/09/30 04:17:04;;;;;;;694.78;347.17;;;;;;;;;;5109569;28;20425;-73
2022/09/30 04:19:31;;;;;;;688.00;342.02;;;;;;;;;;5100183;28;20039;-73
2022/09/30 04:21:57;;;;;;;693.28;339.48;;;;;;;;;;5094921;28;20493;-73
2022/09/30 04:24:24;;;;;;;692.55;343.83;;;;;;;;;;5095910;28;20020;-73
2022/09/30 04:26:50;;;;;;;724.47;354.45;;;;;;;;;;5096051;28;20020;-72
2022/09/30 04:29:16;;;;;;;704.63;345.40;;;;;;;;;;5095039;28;20099;-72
2022/09/30 04:31:43;;;;;;;674.45;340.90;;;;;;;;;;5093581;28;20032;-73
2022/09/30 04:34:10;;;;;;;669.78;337.23;;;;;;;;;;5093993;28;20136;-73
2022/09/30 04:36:36;;;;;;;651.22;326.63;;;;;;;;;;5092609;28;20024;-72
2022/09/30 04:39:02;;;;;;;689.33;345.80;;;;;;;;;;5093532;28;20062;-73
2022/09/30 04:41:28;;;;;;;673.03;336.80;;;;;;;;;;5094737;28;20047;-73
2022/09/30 04:43:55;;;;;;;678.78;339.25;;;;;;;;;;5094858;28;20032;-73
2022/09/30 04:46:21;;;;;;;676.83;337.92;;;;;;;;;;5095389;28;20028;-73
2022/09/30 04:48:48;;;;;;;667.03;333.20;;;;;;;;;;5095785;28;20480;-74
2022/09/30 04:51:15;;;;;;;655.28;333.25;;;;;;;;;;5095737;28;20028;-72
2022/09/30 04:53:41;;;;;;;659.00;330.80;;;;;;;;;;5095308;28;20114;-72
2022/09/30 04:56:07;;;;;;;682.22;341.25;;;;;;;;;;5094508;28;20476;-72
2022/09/30 04:58:34;;;;;;;691.40;342.50;;;;;;;;;;5095748;28;20389;-72
2022/09/30 05:01:04;;;;;;;670.13;340.45;;;;;;;;;;5095176;28;20104;-73
2022/09/30 05:03:31;;;;;;;667.53;334.20;;;;;;;;;;5095309;28;20027;-73
2022/09/30 05:05:57;;;;;;;656.13;328.10;;;;;;;;;;5095271;28;20372;-73
2022/09/30 05:08:23;;;;;;;667.42;324.38;;;;;;;;;;5095001;28;20403;-72
2022/09/30 05:10:56;;;;;;;691.53;337.33;;;;;;;;;;5091196;28;20078;-71
2022/09/30 05:13:29;;;;;;;644.13;326.58;;;;;;;;;;5094120;28;20492;-72
2022/09/30 05:15:55;;;;;;;614.72;314.33;;;;;;;;;;5094724;28;20494;-71
2022/09/30 05:18:21;;;;;;;630.15;323.10;;;;;;;;;;5094264;28;20034;-71
2022/09/30 05:20:51;;;;;;;613.35;312.42;;;;;;;;;;5090339;28;20032;-71
2022/09/30 05:23:17;;;;;;;612.10;309.77;;;;;;;;;;5092284;28;20384;-70
2022/09/30 05:25:44;;;;;;;611.10;315.75;;;;;;;;;;5093679;28;20016;-72
2022/09/30 05:28:11;;;;;;;581.78;314.15;;;;;;;;;;5092839;28;20365;-72
2022/09/30 05:30:37;;;;;;;586.70;315.77;;;;;;;;;;5091557;28;20051;-72
2022/09/30 05:33:03;;;;;;;552.45;307.33;;;;;;;;;;5094405;28;20089;-72
2022/09/30 05:35:30;;;;;;;573.00;309.52;;;;;;;;;;5092733;28;20469;-70
2022/09/30 05:37:56;;;;;;;585.97;312.63;;;;;;;;;;5081797;28;20111;-72
2022/09/30 05:40:22;;;;;;;619.85;323.52;;;;;;;;;;5076753;28;20421;-72
2022/09/30 05:42:49;;;;;;;663.85;340.63;;;;;;;;;;5071463;28;20529;-79
2022/09/30 05:45:15;;;;;;;598.33;305.50;;;;;;;;;;5075661;28;20024;-80
2022/09/30 05:47:41;;;;;;;679.53;334.25;;;;;;;;;;5092505;28;20032;-81
2022/09/30 05:50:07;;;;;;;694.55;336.98;;;;;;;;;;5082828;28;20070;-79
2022/09/30 05:52:34;;;;;;;612.38;318.00;;;;;;;;;;5091963;28;20031;-80
2022/09/30 05:55:01;;;;;;;658.72;330.05;;;;;;;;;;5088909;28;20020;-82
2022/09/30 05:57:28;;;;;;;808.42;357.52;;;;;;;;;;5089035;28;20391;-79
2022/09/30 05:59:55;;;;;;;557.50;314.05;;;;;;;;;;5090494;28;20516;-81
2022/09/30 06:02:21;;;;;;;498.70;294.48;;;;;;;;;;5081451;28;20040;-81
2022/09/30 06:04:47;;;;;;;427.13;261.10;;;;;;;;;;5094515;28;20023;-80
2022/09/30 06:07:13;;;;;;;429.83;268.27;;;;;;;;;;5102271;28;20051;-82
2022/09/30 06:09:39;;;;;;;425.73;264.27;;;;;;;;;;5088952;28;20025;-79
2022/09/30 06:12:05;;;;;;;441.52;278.00;;;;;;;;;;5080754;28;20028;-78
2022/09/30 06:14:32;;;;;;;412.60;260.95;;;;;;;;;;5079311;28;20024;-79
2022/09/30 06:17:01;;;;;;;369.45;244.30;;;;;;;;;;5084599;28;20029;-81
2022/09/30 06:21:21;;;;;;;429.30;272.05;;;;;;;;;;5094460;27;20917;-76
2022/09/30 06:23:47;;;;;;;422.75;269.55;;;;;;;;;;5089127;28;20024;-81
2022/09/30 06:27:27;;;;;;;473.88;283.70;;;;;;;;;;5070705;28;20469;-81
2022/09/30 06:29:53;;;;;;;457.33;282.35;;;;;;;;;;5070650;28;20550;-80
2022/09/30 06:32:29;;;;;;;446.23;277.65;;;;;;;;;;5110146;27;20450;-80
2022/09/30 06:34:55;;;;;;;421.45;271.08;;;;;;;;;;5110469;28;20038;-81
2022/09/30 06:37:22;;;;;;;427.65;270.42;;;;;;;;;;5110212;28;20020;-81
2022/09/30 06:41:00;;;;;;;510.55;301.38;;;;;;;;;;5111394;27;20815;-76
2022/09/30 06:43:26;;;;;;;518.92;304.38;;;;;;;;;;5100757;28;20024;-79
2022/09/30 06:45:52;;;;;;;478.35;288.13;;;;;;;;;;5093879;28;20047;-81
2022/09/30 06:48:19;;;;;;;487.58;286.85;;;;;;;;;;5103587;28;20020;-78
2022/09/30 06:50:45;;;;;;;486.17;293.02;;;;;;;;;;5109249;28;20048;-79
2022/09/30 06:53:12;;;;;;;525.45;295.50;;;;;;;;;;5109740;28;20493;-82
2022/09/30 06:55:38;;;;;;;564.15;317.77;;;;;;;;;;5110406;28;20030;-83
2022/09/30 07:02:12;;;;;;;552.88;308.60;;;;;;;;;;5108344;27;20405;-79
2022/09/30 07:06:06;;;;;;;555.40;306.75;;;;;;;;;;5108444;27;20768;-78
2022/09/30 07:09:47;;;;;;;614.17;328.17;;;;;;;;;;5109295;27;20124;-82
2022/09/30 07:16:14;;;;;;;648.00;329.63;;;;;;;;;;5108959;27;20862;-84
2022/09/30 07:18:43;;;;;;;654.85;329.90;;;;;;;;;;5108159;28;20039;-81
2022/09/30 07:21:12;;;;;;;625.60;327.13;;;;;;;;;;5107271;28;20024;-80
2022/09/30 07:23:41;;;;;;;591.72;316.55;;;;;;;;;;5108323;28;20468;-81
2022/09/30 07:27:41;;;;;;;650.97;334.00;;;;;;;;;;5108524;27;20648;-77
2022/09/30 07:31:02;;;;;;;656.10;333.95;;;;;;;;;;5099949;27;20400;-80
2022/09/30 07:37:51;;;;;;;709.60;339.08;;;;;;;;;;5104636;27;20489;-74
2022/09/30 07:41:53;;;;;;;697.33;336.63;;;;;;;;;;5107365;27;20756;-73
2022/09/30 07:44:42;;;;;;;8.25;4.80;;;;;;;;;;5103497;27;20426;-73
2022/09/30 07:47:09;;;;;;;11.95;4.70;;;;;;;;;;5088160;28;20378;-73
2022/09/30 07:49:35;;;;;;;8.73;4.25;;;;;;;;;;5087345;28;20024;-73
2022/09/30 07:52:01;;;;;;;4.95;3.25;;;;;;;;;;5085157;28;20067;-73
2022/09/30 07:56:45;;;;;;;9.45;3.85;;;;;;;;;;5065347;28;20445;-72
2022/09/30 07:59:11;;;;;;;8.07;3.72;;;;;;;;;;5068309;28;20036;-73
2022/09/30 08:01:38;;;;;;;5.22;3.33;;;;;;;;;;5065921;28;20017;-72
2022/09/30 08:04:05;;;;;;;5.82;2.97;;;;;;;;;;5067000;28;20035;-72
2022/09/30 08:06:35;;;;;;;8.05;3.00;;;;;;;;;;5055443;28;20097;-71
2022/09/30 08:09:01;;;;;;;6.60;2.97;;;;;;;;;;5059567;28;20055;-72
2022/09/30 08:11:28;;;;;;;7.40;3.05;;;;;;;;;;5065294;28;20017;-72
2022/09/30 08:17:28;;;;;;;5.43;2.85;;;;;;;;;;5108634;27;20414;-75
2022/09/30 08:21:05;;;;;;;6.32;2.95;;;;;;;;;;5062703;28;20431;-74
2022/09/30 08:23:32;;;;;;;6.47;3.03;;;;;;;;;;5058081;28;20489;-72
2022/09/30 08:26:05;;;;;;;6.15;2.53;;;;;;;;;;5054227;28;20029;-73
2022/09/30 08:28:32;;;;;;;6.30;2.75;;;;;;;;;;5053441;28;20033;-74
2022/09/30 08:33:34;;;;;;;6.32;3.03;;;;;;;;;;5107632;27;20874;-73
2022/09/30 08:36:04;;;;;;;10.18;3.53;;;;;;;;;;5106347;28;20036;-74
2022/09/30 08:39:06;;;;;;;4.60;2.70;;;;;;;;;;5086599;27;20398;-72
2022/09/30 08:44:23;;;;;;;4.30;2.42;;;;;;;;;;5083952;27;1934478;-75
2022/09/30 08:47:01;;;;;;;6.25;2.97;;;;;;;;;;5126598;28;20062;-76
2022/09/30 08:50:08;;;;;;;5.22;3.00;;;;;;;;;;5067082;28;20473;-74
2022/09/30 08:53:42;;;;;;;7.35;3.20;;;;;;;;;;5102520;27;20489;-72
2022/09/30 08:56:10;;;;;;;6.80;3.47;;;;;;;;;;5101959;28;20032;-72
2022/09/30 08:59:26;;;;;;;7.18;2.85;;;;;;;;;;5097291;27;20435;-73
2022/09/30 09:01:54;;;;;;;5.13;2.85;;;;;;;;;;5096568;28;20034;-73
2022/09/30 09:04:20;;;;;;;4.93;2.63;;;;;;;;;;5098511;28;20226;-74
2022/09/30 09:07:05;;;;;;;5.55;3.00;;;;;;;;;;5107409;28;20016;-73
2022/09/30 09:09:52;;;;;;;6.18;2.45;;;;;;;;;;5109430;28;20114;-77
2022/09/30 09:12:18;;;;;;;5.97;3.47;;;;;;;;;;5096295;28;20469;-74
2022/09/30 09:15:03;;;;;;;12.43;3.15;;;;;;;;;;5097055;28;20077;-74
2022/09/30 09:17:32;;;;;;;7.57;2.85;;;;;;;;;;5108143;28;20028;-75
2022/09/30 09:19:58;;;;;;;4.13;2.40;;;;;;;;;;5094638;28;20138;-74
2022/09/30 09:22:26;;;;;;;5.72;2.00;;;;;;;;;;5088447;28;20024;-74
2022/09/30 09:24:54;;;;;;;5.80;2.45;;;;;;;;;;5087907;28;20024;-73
2022/09/30 09:27:26;;;;;;;3.08;2.20;;;;;;;;;;5087260;28;20459;-75
2022/09/30 09:30:00;;;;;;;4.70;2.50;;;;;;;;;;5088483;28;20082;-76
2022/09/30 09:32:28;;;;;;;4.93;2.33;;;;;;;;;;5087001;28;20077;-73
2022/09/30 09:34:57;;;;;;;3.63;2.10;;;;;;;;;;5088605;28;20040;-73
2022/09/30 09:39:11;;;;;;;6.57;2.60;;;;;;;;;;5107862;27;20457;-72
2022/09/30 09:43:25;;;;;;;5.85;2.67;;;;;;;;;;5108547;27;20450;-72
2022/09/30 09:45:51;;;;;;;6.32;2.50;;;;;;;;;;5109134;28;20035;-73
2022/09/30 09:48:17;;;;;;;4.57;2.10;;;;;;;;;;5108384;28;20020;-74
2022/09/30 09:53:21;;;;;;;6.63;2.58;;;;;;;;;;5109839;27;20404;-76
2022/09/30 09:55:47;;;;;;;4.50;1.92;;;;;;;;;;5107017;28;20047;-76
2022/09/30 10:02:59;;;;;;;5.07;2.05;;;;;;;;;;5088245;28;20031;-74
2022/09/30 10:05:25;;;;;;;3.88;1.60;;;;;;;;;;5105394;28;20036;-72
2022/09/30 10:08:07;;;;;;;4.18;1.80;;;;;;;;;;5098226;28;20055;-75
2022/09/30 10:10:40;;;;;;;2.90;1.35;;;;;;;;;;5099844;28;20031;-75
2022/09/30 10:13:13;;;;;;;4.38;1.70;;;;;;;;;;5109602;28;20024;-72
2022/09/30 10:15:42;;;;;;;4.70;1.77;;;;;;;;;;5107406;28;20043;-73
2022/09/30 10:19:35;;;;;;;8.48;2.00;;;;;;;;;;5110186;27;20688;-74
2022/09/30 10:22:08;;;;;;;4.63;1.73;;;;;;;;;;5100564;28;20047;-76
2022/09/30 10:24:35;;;;;;;8.43;2.42;;;;;;;;;;5110007;28;20326;-75
2022/09/30 10:27:01;;;;;;;4.90;1.70;;;;;;;;;;5101214;28;20028;-74
2022/09/30 10:29:30;;;;;;;4.97;2.13;;;;;;;;;;5096276;28;20571;-75
2022/09/30 10:31:58;;;;;;;4.50;1.60;;;;;;;;;;5088701;28;20104;-76
2022/09/30 10:34:24;;;;;;;4.00;1.63;;;;;;;;;;5087429;28;20522;-73
2022/09/30 10:39:08;;;;;;;6.53;1.73;;;;;;;;;;5079370;28;20471;-73
2022/09/30 10:41:36;;;;;;;2.45;1.23;;;;;;;;;;5058267;28;20112;-74
2022/09/30 10:44:04;;;;;;;3.22;1.52;;;;;;;;;;5067694;28;20029;-74
2022/09/30 10:46:34;;;;;;;6.22;2.00;;;;;;;;;;5066981;28;20025;-73
2022/09/30 10:49:07;;;;;;;4.85;1.40;;;;;;;;;;5066672;28;20012;-72
2022/09/30 10:51:35;;;;;;;3.22;1.42;;;;;;;;;;5062867;28;20037;-77
2022/09/30 10:54:02;;;;;;;8.52;2.63;;;;;;;;;;5048321;28;20013;-74
2022/09/30 10:56:33;;;;;;;3.08;1.70;;;;;;;;;;5059851;28;20425;-74
2022/09/30 10:59:00;;;;;;;2.38;1.13;;;;;;;;;;5066618;28;20025;-74
2022/09/30 11:01:37;;;;;;;2.97;1.42;;;;;;;;;;5065611;28;20021;-74
2022/09/30 11:04:03;;;;;;;3.67;1.40;;;;;;;;;;5064382;28;20400;-74
2022/09/30 11:06:31;;;;;;;4.05;1.50;;;;;;;;;;5065869;28;20012;-74
2022/09/30 11:08:57;;;;;;;2.45;1.38;;;;;;;;;;5049994;28;20099;-76
2022/09/30 11:11:41;;;;;;;3.38;1.30;;;;;;;;;;5044039;28;20061;-76
2022/09/30 11:14:13;;;;;;;2.10;1.52;;;;;;;;;;5046171;28;20218;-74
2022/09/30 11:16:51;;;;;;;4.30;1.35;;;;;;;;;;5047248;28;20157;-75
2022/09/30 11:19:37;;;;;;;2.92;1.45;;;;;;;;;;5048650;28;20112;-76
2022/09/30 11:22:13;;;;;;;7.22;2.40;;;;;;;;;;5047888;28;20118;-76
2022/09/30 11:24:44;;;;;;;3.47;1.63;;;;;;;;;;5051220;28;20052;-74
2022/09/30 11:27:29;;;;;;;3.08;1.27;;;;;;;;;;5054905;28;20031;-72
2022/09/30 11:30:01;;;;;;;5.13;2.60;;;;;;;;;;5049419;28;20029;-75
2022/09/30 11:32:51;;;;;;;5.85;1.90;;;;;;;;;;5066858;28;20024;-75
2022/09/30 11:35:36;;;;;;;3.80;1.35;;;;;;;;;;5067789;28;20044;-75
2022/09/30 11:38:09;;;;;;;7.65;2.88;;;;;;;;;;5052318;28;20401;-74
2022/09/30 11:40:54;;;;;;;3.88;1.35;;;;;;;;;;5052612;28;20473;-74
2022/09/30 11:43:20;;;;;;;4.22;1.33;;;;;;;;;;5056379;28;20024;-76
2022/09/30 11:46:05;;;;;;;1.85;1.08;;;;;;;;;;5064206;28;20020;-78
2022/09/30 11:48:31;;;;;;;4.55;1.77;;;;;;;;;;5055955;28;20053;-78
2022/09/30 11:51:06;;;;;;;3.53;2.08;;;;;;;;;;5055791;28;20112;-78
2022/09/30 11:53:39;;;;;;;3.92;1.70;;;;;;;;;;5055365;28;20043;-76
2022/09/30 11:56:11;;;;;;;8.40;1.52;;;;;;;;;;5051831;28;20029;-75
2022/09/30 11:58:40;;;;;;;5.30;1.80;;;;;;;;;;5045496;28;20123;-77
2022/09/30 12:01:20;;;;;;;7.13;2.03;;;;;;;;;;5042153;28;20277;-76
2022/09/30 12:04:06;;;;;;;4.75;1.80;;;;;;;;;;5013271;28;20497;-77
2022/09/30 12:06:34;;;;;;;6.72;1.50;;;;;;;;;;5008020;28;20100;-77
2022/09/30 12:09:16;;;;;;;2.88;1.40;;;;;;;;;;5012417;28;20056;-77
2022/09/30 12:11:51;;;;;;;2.22;1.08;;;;;;;;;;5013759;28;20025;-77
2022/09/30 12:14:30;;;;;;;6.18;2.17;;;;;;;;;;5012166;28;20017;-77
2022/09/30 12:16:57;;;;;;;2.75;1.27;;;;;;;;;;5013301;28;20033;-77
2022/09/30 12:19:45;;;;;;;8.50;1.52;;;;;;;;;;5013748;28;20039;-77
2022/09/30 12:22:17;;;;;;;1.92;1.25;;;;;;;;;;5013708;28;20456;-77
2022/09/30 12:24:44;;;;;;;;;;;;;;;;;;5016194;28;20477;-77
2022/09/30 12:27:39;;;;;;;3.47;1.23;;;;;;;;;;5016095;28;19912;-78
2022/09/30 12:30:19;;;;;;;8.25;2.60;;;;;;;;;;5022351;28;20041;-77
2022/09/30 12:32:51;;;;;;;3.95;1.70;;;;;;;;;;5016276;28;20113;-77
2022/09/30 12:35:29;;;;;;;2.50;1.20;;;;;;;;;;5015688;28;20410;-77
2022/09/30 12:38:01;;;;;;;7.30;1.30;;;;;;;;;;5014965;28;20049;-77
2022/09/30 12:40:38;;;;;;;4.50;1.90;;;;;;;;;;5014091;28;20028;-77
2022/09/30 12:43:13;;;;;;;3.88;1.50;;;;;;;;;;5015693;28;20018;-77
2022/09/30 12:45:53;;;;;;;3.33;1.40;;;;;;;;;;5015203;28;20026;-77
2022/09/30 12:48:21;;;;;;;4.45;1.45;;;;;;;;;;5015579;28;20025;-77
2022/09/30 12:50:52;;;;;;;2.35;1.20;;;;;;;;;;5014950;28;20028;-77
2022/09/30 12:53:23;;;;;;;2.45;1.05;;;;;;;;;;5015212;28;20494;-77
2022/09/30 12:55:50;;;;;;;2.80;1.42;;;;;;;;;;5015253;28;20524;-78
2022/09/30 12:58:19;;;;;;;2.40;1.40;;;;;;;;;;5014710;28;20034;-77
2022/09/30 13:00:59;;;;;;;3.58;1.20;;;;;;;;;;5014250;28;20025;-77
2022/09/30 13:03:25;;;;;;;4.50;1.90;;;;;;;;;;5015117;28;20088;-77
2022/09/30 13:05:55;;;;;;;2.53;1.10;;;;;;;;;;5014784;28;20476;-77
2022/09/30 13:08:21;;;;;;;2.78;1.27;;;;;;;;;;5015009;28;20057;-77
2022/09/30 13:10:52;;;;;;;2.67;1.55;;;;;;;;;;5015023;28;20032;-77
2022/09/30 13:13:26;;;;;;;5.85;2.40;;;;;;;;;;5014588;28;20022;-77
2022/09/30 13:16:01;;;;;;;7.03;2.47;;;;;;;;;;5013520;28;20101;-77
2022/09/30 13:18:28;;;;;;;2.03;1.10;;;;;;;;;;5014576;28;20100;-77
2022/09/30 13:20:57;;;;;;;2.05;0.98;;;;;;;;;;5014926;28;20026;-77
2022/09/30 13:23:42;;;;;;;3.38;1.58;;;;;;;;;;5014749;28;20025;-77
2022/09/30 13:26:23;;;;;;;3.42;1.52;;;;;;;;;;5014349;28;20036;-77
2022/09/30 13:28:50;;;;;;;3.58;1.35;;;;;;;;;;5014666;28;20030;-77
2022/09/30 13:31:23;;;;;;;5.22;1.10;;;;;;;;;;5013378;28;20474;-78
2022/09/30 13:34:01;;;;;;;3.67;1.42;;;;;;;;;;5014300;28;20092;-78
2022/09/30 13:36:47;;;;;;;4.10;1.10;;;;;;;;;;5014817;28;20036;-78
2022/09/30 13:39:22;;;;;;;1.52;0.90;;;;;;;;;;5014657;28;20533;-77
2022/09/30 13:41:54;;;;;;;2.20;1.20;;;;;;;;;;5012837;28;20030;-77
2022/09/30 13:44:31;;;;;;;4.07;1.27;;;;;;;;;;5013087;28;20382;-77
2022/09/30 13:47:00;;;;;;;3.60;1.10;;;;;;;;;;5014271;28;20022;-78
2022/09/30 13:49:35;;;;;;;6.80;2.30;;;;;;;;;;5014301;28;20053;-77
2022/09/30 13:52:02;;;;;;;4.18;1.65;;;;;;;;;;5014504;28;20029;-78
2022/09/30 13:54:32;;;;;;;5.22;1.60;;;;;;;;;;5013801;28;20080;-77
2022/09/30 13:57:00;;;;;;;6.53;1.40;;;;;;;;;;5014152;28;20080;-78
2022/09/30 13:59:32;;;;;;;4.70;1.13;;;;;;;;;;5014008;28;20061;-78
2022/09/30 14:02:08;;;;;;;3.20;1.40;;;;;;;;;;5013705;28;20481;-78
2022/09/30 14:04:47;;;;;;;3.38;1.85;;;;;;;;;;5013751;28;20081;-77
2022/09/30 14:07:31;;;;;;;6.20;2.00;;;;;;;;;;5014067;28;20385;-77
2022/09/30 14:10:12;;;;;;;6.55;1.83;;;;;;;;;;5013545;28;20022;-78
2022/09/30 14:12:38;;;;;;;4.20;1.92;;;;;;;;;;5013655;28;20026;-77
2022/09/30 14:15:14;;;;;;;6.13;1.85;;;;;;;;;;5012161;28;20088;-77
2022/09/30 14:17:59;;;;;;;5.85;2.20;;;;;;;;;;5013732;28;20034;-76
2022/09/30 14:20:25;;;;;;;2.40;1.48;;;;;;;;;;5012460;28;20479;-77
2022/09/30 14:22:52;;;;;;;4.15;1.40;;;;;;;;;;5013404;28;20022;-77
2022/09/30 14:25:19;;;;;;;3.35;1.20;;;;;;;;;;5013620;28;20386;-77
2022/09/30 14:27:58;;;;;;;9.85;2.80;;;;;;;;;;5013635;28;20042;-77
2022/09/30 14:30:24;;;;;;;3.38;1.40;;;;;;;;;;5013336;28;20475;-78
2022/09/30 14:32:53;;;;;;;6.97;1.95;;;;;;;;;;5013720;28;20052;-78
2022/09/30 14:35:21;;;;;;;6.43;2.47;;;;;;;;;;5013709;28;20075;-78
2022/09/30 14:37:47;;;;;;;3.85;2.28;;;;;;;;;;5013062;28;20054;-78
2022/09/30 14:40:32;;;;;;;4.38;1.50;;;;;;;;;;5013672;28;20026;-77
2022/09/30 14:43:01;;;;;;;4.30;2.08;;;;;;;;;;5013237;28;20056;-77
2022/09/30 14:45:32;;;;;;;4.35;1.10;;;;;;;;;;5013886;28;20025;-77
2022/09/30 14:48:01;;;;;;;3.67;1.25;;;;;;;;;;5012391;28;20030;-78
2022/09/30 14:50:32;;;;;;;4.78;2.20;;;;;;;;;;5013241;28;20033;-77
2022/09/30 14:52:59;;;;;;;4.00;2.33;;;;;;;;;;5013517;28;20026;-78
2022/09/30 14:55:25;;;;;;;9.32;2.83;;;;;;;;;;5012313;28;20033;-77
2022/09/30 14:57:53;;;;;;;6.75;2.42;;;;;;;;;;5013179;28;20034;-78
2022/09/30 15:00:26;;;;;;;4.55;1.90;;;;;;;;;;5013470;28;20022;-77
2022/09/30 15:02:53;;;;;;;3.03;1.80;;;;;;;;;;5013438;28;20029;-78
2022/09/30 15:05:19;;;;;;;4.18;1.80;;;;;;;;;;5013066;28;20022;-78
2022/09/30 15:07:45;;;;;;;5.72;3.05;;;;;;;;;;5012630;28;20148;-78
2022/09/30 15:10:20;;;;;;;5.53;2.05;;;;;;;;;;5011244;28;20389;-78
2022/09/30 15:12:49;;;;;;;4.57;1.70;;;;;;;;;;5009528;28;20033;-78
2022/09/30 15:15:33;;;;;;;5.43;2.17;;;;;;;;;;5011283;28;20028;-78
2022/09/30 15:18:01;;;;;;;3.05;2.25;;;;;;;;;;5011488;28;20482;-79
2022/09/30 15:20:30;;;;;;;6.88;2.38;;;;;;;;;;5009892;28;20096;-78
2022/09/30 15:22:59;;;;;;;6.63;2.63;;;;;;;;;;5013002;28;20383;-78
2022/09/30 15:25:27;;;;;;;5.28;2.05;;;;;;;;;;5015931;28;20018;-78
2022/09/30 15:27:53;;;;;;;4.07;1.70;;;;;;;;;;5015647;28;20040;-78
2022/09/30 15:30:19;;;;;;;4.03;1.73;;;;;;;;;;5015852;28;20046;-78
2022/09/30 15:32:46;;;;;;;2.90;1.98;;;;;;;;;;5016347;28;20506;-78
2022/09/30 15:35:15;;;;;;;3.30;1.50;;;;;;;;;;5016822;28;20054;-79
2022/09/30 15:37:42;;;;;;;5.10;1.50;;;;;;;;;;5016456;28;20045;-79
2022/09/30 15:43:01;;;;;;;4.10;2.20;;;;;;;;;;5016651;28;20041;-80
2022/09/30 15:45:32;;;;;;;6.78;3.25;;;;;;;;;;5016623;28;20036;-80
2022/09/30 15:48:27;;;;;;;11.35;5.38;;;;;;;;;;5016111;28;20022;-80
2022/09/30 15:50:54;;;;;;;13.77;7.00;;;;;;;;;;5016443;28;20038;-80
2022/09/30 15:53:33;;;;;;;9.82;4.18;;;;;;;;;;5016018;28;20112;-80
2022/09/30 15:56:00;;;;;;;10.45;2.90;;;;;;;;;;5016395;28;20058;-80
2022/09/30 15:58:26;;;;;;;10.30;2.65;;;;;;;;;;5015064;28;20494;-80